Time;durP1;ratioP1;P1;durP2;ratioP2;P2;SDS_P1;SDS_P2;PMS_P1;PMS_P2;Temp;Humidity;BMP_temperature;BMP_pressure;BME280_temperature;BME280_humidity;BME280_pressure;Samples;Min_cycle;Max_cycle;Signal;HPM_P1;HPM_P2
2022/02/19 00:02:24;;;;;;;2.57;1.50;;;2.50;99.90;;;;;;6287793;28;20291;-72
2022/02/19 00:05:30;;;;;;;6.37;1.60;;;2.40;99.90;;;;;;6290470;28;20277;-72
2022/02/19 00:08:35;;;;;;;4.53;1.80;;;2.40;99.90;;;;;;6290953;28;20300;-72
2022/02/19 00:11:40;;;;;;;3.33;1.50;;;2.40;99.90;;;;;;6290657;28;20271;-72
2022/02/19 00:14:45;;;;;;;4.53;1.50;;;2.40;99.90;;;;;;6290836;28;20316;-72
2022/02/19 00:17:54;;;;;;;6.47;1.50;;;2.40;99.90;;;;;;6290318;28;20295;-72
2022/02/19 00:21:16;;;;;;;4.00;2.23;;;2.40;99.90;;;;;;6259972;28;20280;-73
2022/02/19 00:24:21;;;;;;;6.03;1.77;;;2.40;99.90;;;;;;6289973;28;20303;-71
2022/02/19 00:27:27;;;;;;;4.17;1.60;;;2.40;99.90;;;;;;6290245;28;20565;-72
2022/02/19 00:30:33;;;;;;;4.67;1.60;;;2.30;99.90;;;;;;6272858;28;20295;-71
2022/02/19 00:33:40;;;;;;;3.30;1.73;;;2.40;99.90;;;;;;6289577;28;20296;-71
2022/02/19 00:36:45;;;;;;;7.93;1.70;;;2.30;99.90;;;;;;6289985;28;20271;-72
2022/02/19 00:39:50;;;;;;;2.97;1.40;;;2.30;99.90;;;;;;6290323;28;20302;-71
2022/02/19 00:42:56;;;;;;;3.97;2.33;;;2.30;99.90;;;;;;6289918;28;20301;-72
2022/02/19 00:46:03;;;;;;;2.53;1.50;;;2.30;99.90;;;;;;6290121;28;20275;-72
2022/02/19 00:49:09;;;;;;;3.83;1.70;;;2.30;99.90;;;;;;6271360;28;20305;-71
2022/02/19 00:52:18;;;;;;;2.70;1.73;;;2.30;99.90;;;;;;6288982;28;20451;-72
2022/02/19 00:55:23;;;;;;;5.37;1.60;;;2.30;99.90;;;;;;6289436;28;20272;-71
2022/02/19 00:58:29;;;;;;;5.03;1.60;;;2.30;99.90;;;;;;6290030;28;20301;-71
2022/02/19 01:01:35;;;;;;;4.87;1.70;;;2.20;99.90;;;;;;6289169;28;20278;-71
2022/02/19 01:04:52;;;;;;;6.37;1.63;;;2.20;99.90;;;;;;6289052;28;20395;-72
2022/02/19 01:07:57;;;;;;;3.63;1.63;;;2.20;99.90;;;;;;6271783;28;20300;-72
2022/02/19 01:11:02;;;;;;;5.33;1.83;;;2.20;99.90;;;;;;6289199;28;20294;-71
2022/02/19 01:14:09;;;;;;;4.90;1.67;;;2.20;99.90;;;;;;6270441;28;20297;-71
2022/02/19 01:17:14;;;;;;;5.90;1.73;;;2.20;99.90;;;;;;6270553;28;20304;-72
2022/02/19 01:20:21;;;;;;;8.50;1.73;;;2.10;99.90;;;;;;6271049;28;20549;-71
2022/02/19 01:23:26;;;;;;;4.00;1.40;;;2.20;99.90;;;;;;6271119;28;20306;-72
2022/02/19 01:26:33;;;;;;;2.47;1.80;;;2.20;99.90;;;;;;6271931;28;20276;-71
2022/02/19 01:29:38;;;;;;;3.53;1.60;;;2.10;99.90;;;;;;6270441;28;20297;-71
2022/02/19 01:32:44;;;;;;;3.40;1.90;;;2.10;99.90;;;;;;6271179;28;20294;-72
2022/02/19 01:35:51;;;;;;;5.13;1.87;;;2.10;99.90;;;;;;6270621;28;20455;-71
2022/02/19 01:38:57;;;;;;;3.23;1.70;;;2.10;99.90;;;;;;6270353;28;20295;-71
2022/02/19 01:42:03;;;;;;;3.63;1.97;;;2.00;99.90;;;;;;6270758;28;20274;-72
2022/02/19 01:45:13;;;;;;;3.50;1.70;;;2.00;99.90;;;;;;6271784;28;20276;-71
2022/02/19 01:48:20;;;;;;;4.17;1.60;;;2.00;99.90;;;;;;6270789;28;20303;-71
2022/02/19 01:51:30;;;;;;;2.40;1.47;;;2.00;99.90;;;;;;6287615;28;20303;-71
2022/02/19 01:54:35;;;;;;;5.70;1.70;;;1.90;99.90;;;;;;6270655;28;20298;-72
2022/02/19 01:57:46;;;;;;;7.07;2.00;;;1.90;99.90;;;;;;6286190;28;20475;-72
2022/02/19 02:01:18;;;;;;;1.50;1.40;;;1.90;99.90;;;;;;6265756;28;20275;-72
2022/02/19 02:04:42;;;;;;;2.43;1.50;;;1.90;99.90;;;;;;6287834;28;20292;-71
2022/02/19 02:07:49;;;;;;;2.70;1.77;;;1.90;99.90;;;;;;6270096;28;20466;-72
2022/02/19 02:10:55;;;;;;;1.83;1.70;;;1.90;99.90;;;;;;6263355;28;20591;-71
2022/02/19 02:14:13;;;;;;;1.60;1.50;;;1.80;99.90;;;;;;6269745;28;20297;-71
2022/02/19 02:17:50;;;;;;;3.60;1.37;;;1.80;99.90;;;;;;6276699;28;20307;-72
2022/02/19 02:20:55;;;;;;;1.70;1.60;;;1.90;99.90;;;;;;6287208;28;20275;-72
2022/02/19 02:24:02;;;;;;;1.90;1.80;;;1.80;99.90;;;;;;6269550;28;20394;-72
2022/02/19 02:27:12;;;;;;;1.50;1.40;;;1.80;99.90;;;;;;6286621;28;20329;-72
2022/02/19 02:30:19;;;;;;;1.67;1.20;;;1.80;99.90;;;;;;6287410;28;20272;-72
2022/02/19 02:33:30;;;;;;;1.30;1.30;;;1.80;99.90;;;;;;6269874;28;20228;-72
2022/02/19 02:36:44;;;;;;;1.23;1.23;;;1.80;99.90;;;;;;6269721;28;20276;-72
2022/02/19 02:39:52;;;;;;;1.10;1.10;;;1.80;99.90;;;;;;6269144;28;20294;-71
2022/02/19 02:43:03;;;;;;;2.20;1.07;;;1.70;99.90;;;;;;6285340;28;20300;-72
2022/02/19 02:46:11;;;;;;;3.40;1.00;;;1.70;99.90;;;;;;6270290;28;20271;-72
2022/02/19 02:49:17;;;;;;;3.50;1.20;;;1.80;99.90;;;;;;6286751;28;20295;-71
2022/02/19 02:52:23;;;;;;;1.83;1.30;;;1.70;99.90;;;;;;6268164;28;20295;-72
2022/02/19 02:55:30;;;;;;;1.07;1.07;;;1.70;99.90;;;;;;6286333;28;20278;-71
2022/02/19 02:58:36;;;;;;;6.13;1.13;;;1.70;99.90;;;;;;6269089;28;20314;-71
2022/02/19 03:01:45;;;;;;;1.23;0.90;;;1.70;99.90;;;;;;6269268;28;20275;-72
2022/02/19 03:04:50;;;;;;;7.37;1.30;;;1.70;99.90;;;;;;6268555;28;20298;-72
2022/02/19 03:07:56;;;;;;;2.77;1.27;;;1.70;99.90;;;;;;6268914;28;20295;-71
2022/02/19 03:11:07;;;;;;;2.43;1.17;;;1.70;99.90;;;;;;6254268;28;20270;-71
2022/02/19 03:14:16;;;;;;;1.90;1.17;;;1.70;99.90;;;;;;6244558;28;20299;-72
2022/02/19 03:17:23;;;;;;;1.47;1.20;;;1.70;99.90;;;;;;6244124;28;20292;-71
2022/02/19 03:20:30;;;;;;;1.13;1.13;;;1.70;99.90;;;;;;6244801;28;20475;-71
2022/02/19 03:23:36;;;;;;;3.20;1.07;;;1.70;99.90;;;;;;6254615;28;20311;-74
2022/02/19 03:26:43;;;;;;;1.00;1.00;;;1.70;99.90;;;;;;6285840;28;20462;-70
2022/02/19 03:29:53;;;;;;;1.80;1.13;;;1.70;99.90;;;;;;6268587;28;20295;-71
2022/02/19 03:32:59;;;;;;;1.30;0.90;;;1.70;99.90;;;;;;6267878;28;20300;-72
2022/02/19 03:36:05;;;;;;;1.27;0.90;;;1.70;99.90;;;;;;6268423;28;20271;-72
2022/02/19 03:39:11;;;;;;;1.90;1.00;;;1.70;99.90;;;;;;6268771;28;20572;-72
2022/02/19 03:42:18;;;;;;;6.67;1.43;;;1.70;99.90;;;;;;6260362;28;20291;-72
2022/02/19 03:45:24;;;;;;;1.10;1.10;;;1.70;99.90;;;;;;6269391;28;20278;-72
2022/02/19 03:48:44;;;;;;;3.43;1.17;;;1.70;99.90;;;;;;6284494;28;20296;-72
2022/02/19 03:51:51;;;;;;;1.10;1.10;;;1.70;99.90;;;;;;6268071;28;20295;-72
2022/02/19 03:54:57;;;;;;;2.53;1.10;;;1.70;99.90;;;;;;6267601;28;20275;-71
2022/02/19 03:58:05;;;;;;;1.90;1.23;;;1.60;99.90;;;;;;6267739;28;20304;-71
2022/02/19 04:01:12;;;;;;;2.90;1.10;;;1.70;99.90;;;;;;6267775;28;20271;-74
2022/02/19 04:04:18;;;;;;;2.00;1.00;;;1.60;99.90;;;;;;6250855;28;20302;-71
2022/02/19 04:07:24;;;;;;;3.40;1.10;;;1.60;99.90;;;;;;6275408;28;20292;-72
2022/02/19 04:10:39;;;;;;;2.73;1.00;;;1.70;99.90;;;;;;6268100;28;20261;-72
2022/02/19 04:13:45;;;;;;;3.30;1.13;;;1.60;99.90;;;;;;6267279;28;20302;-71
2022/02/19 04:16:53;;;;;;;1.93;1.20;;;1.60;99.90;;;;;;6268469;28;20272;-71
2022/02/19 04:20:04;;;;;;;1.00;1.00;;;1.60;99.90;;;;;;6267550;28;20441;-72
2022/02/19 04:23:10;;;;;;;2.00;1.10;;;1.60;99.90;;;;;;6267678;28;20318;-72
2022/02/19 04:26:15;;;;;;;1.20;1.10;;;1.60;99.90;;;;;;6286196;28;20273;-72
2022/02/19 04:29:28;;;;;;;1.03;1.03;;;1.60;99.90;;;;;;6267610;28;20295;-72
2022/02/19 04:32:39;;;;;;;4.00;1.17;;;1.60;99.90;;;;;;6267500;28;20300;-71
2022/02/19 04:35:45;;;;;;;1.60;0.87;;;1.60;99.90;;;;;;6283923;28;20272;-71
2022/02/19 04:38:50;;;;;;;1.07;1.07;;;1.60;99.90;;;;;;6267662;28;20298;-71
2022/02/19 04:41:56;;;;;;;1.60;1.00;;;1.70;99.90;;;;;;6267254;28;20278;-72
2022/02/19 04:45:03;;;;;;;1.17;0.90;;;1.70;99.90;;;;;;6267971;28;20274;-72
2022/02/19 04:48:19;;;;;;;1.33;0.80;;;1.70;99.90;;;;;;6269941;28;20608;-71
2022/02/19 04:51:29;;;;;;;1.67;0.83;;;1.60;99.90;;;;;;6271556;28;20530;-72
2022/02/19 04:54:35;;;;;;;0.87;0.87;;;1.60;99.90;;;;;;6287843;28;20306;-71
2022/02/19 04:57:43;;;;;;;1.00;1.00;;;1.70;99.90;;;;;;6271289;28;20304;-72
2022/02/19 05:00:51;;;;;;;1.00;1.00;;;1.60;99.90;;;;;;6272088;28;20283;-72
2022/02/19 05:03:57;;;;;;;1.20;1.10;;;1.60;99.90;;;;;;6288711;28;20490;-72
2022/02/19 05:07:20;;;;;;;0.87;0.87;;;1.60;99.90;;;;;;6271664;28;20291;-73
2022/02/19 05:10:27;;;;;;;1.10;1.00;;;1.60;99.90;;;;;;6289749;28;20272;-72
2022/02/19 05:13:35;;;;;;;1.10;1.10;;;1.70;99.90;;;;;;6287567;28;20302;-73
2022/02/19 05:16:42;;;;;;;0.90;0.90;;;1.60;99.90;;;;;;6271856;28;20278;-72
2022/02/19 05:19:50;;;;;;;1.00;1.00;;;1.70;99.90;;;;;;6271599;28;20298;-73
2022/02/19 05:22:56;;;;;;;0.90;0.90;;;1.60;99.90;;;;;;6288094;28;20300;-73
2022/02/19 05:26:07;;;;;;;0.80;0.70;;;1.60;99.90;;;;;;6271497;28;20555;-72
2022/02/19 05:29:13;;;;;;;0.90;0.90;;;1.60;99.90;;;;;;6271346;28;20316;-73
2022/02/19 05:32:21;;;;;;;0.90;0.90;;;1.60;99.90;;;;;;6270990;28;20290;-71
2022/02/19 05:35:35;;;;;;;0.90;0.90;;;1.60;99.90;;;;;;6271340;28;20444;-71
2022/02/19 05:38:41;;;;;;;0.70;0.70;;;1.60;99.90;;;;;;6270480;28;20296;-71
2022/02/19 05:41:47;;;;;;;0.80;0.80;;;1.60;99.90;;;;;;6288759;28;20268;-72
2022/02/19 05:44:58;;;;;;;0.70;0.70;;;1.70;99.90;;;;;;6270314;28;20457;-71
2022/02/19 05:48:06;;;;;;;0.70;0.70;;;1.70;99.90;;;;;;6270117;28;20299;-71
2022/02/19 05:51:32;;;;;;;0.70;0.70;;;1.70;99.90;;;;;;6287846;28;20272;-71
2022/02/19 05:54:44;;;;;;;0.73;0.73;;;1.70;99.90;;;;;;6270647;28;20303;-72
2022/02/19 05:57:56;;;;;;;0.80;0.80;;;1.70;99.90;;;;;;6270239;28;20300;-72
2022/02/19 06:01:02;;;;;;;0.90;0.90;;;1.70;99.90;;;;;;6269783;28;20274;-71
2022/02/19 06:04:09;;;;;;;0.70;0.70;;;1.70;99.90;;;;;;6270247;28;20303;-72
2022/02/19 06:07:15;;;;;;;0.70;0.70;;;1.70;99.90;;;;;;6270552;28;20291;-72
2022/02/19 06:10:20;;;;;;;0.90;0.90;;;1.70;99.90;;;;;;6270599;28;20276;-71
2022/02/19 06:13:28;;;;;;;0.80;0.80;;;1.70;99.90;;;;;;6269293;28;20299;-72
2022/02/19 06:16:33;;;;;;;0.90;0.90;;;1.60;99.90;;;;;;6288011;28;20271;-72
2022/02/19 06:19:42;;;;;;;0.80;0.80;;;1.70;99.90;;;;;;6269878;28;20291;-72
2022/02/19 06:22:50;;;;;;;0.80;0.80;;;1.60;99.90;;;;;;6257946;28;20299;-72
2022/02/19 06:25:57;;;;;;;1.27;0.80;;;1.60;99.90;;;;;;6245472;28;20275;-72
2022/02/19 06:29:03;;;;;;;0.80;0.80;;;1.70;99.90;;;;;;6244436;28;20300;-72
2022/02/19 06:32:12;;;;;;;0.80;0.80;;;1.70;99.90;;;;;;6244590;28;20277;-72
2022/02/19 06:35:25;;;;;;;0.70;0.70;;;1.70;99.90;;;;;;6245303;28;20447;-71
2022/02/19 06:38:41;;;;;;;0.80;0.80;;;1.70;99.90;;;;;;6244614;28;20319;-72
2022/02/19 06:41:48;;;;;;;0.90;0.90;;;1.70;99.90;;;;;;6244659;28;20275;-72
2022/02/19 06:45:17;;;;;;;0.80;0.80;;;1.70;99.90;;;;;;6243932;28;20281;-72
2022/02/19 06:48:24;;;;;;;0.90;0.90;;;1.70;99.90;;;;;;6244375;28;20304;-73
2022/02/19 06:51:31;;;;;;;0.90;0.90;;;1.70;99.90;;;;;;6245104;28;20555;-72
2022/02/19 06:54:37;;;;;;;0.80;0.80;;;1.70;99.90;;;;;;6245067;28;20469;-72
2022/02/19 06:57:42;;;;;;;0.90;0.90;;;1.70;99.90;;;;;;6261982;28;20580;-73
2022/02/19 07:00:51;;;;;;;1.10;1.10;;;1.70;99.90;;;;;;6262078;28;20275;-73
2022/02/19 07:03:58;;;;;;;1.47;1.47;;;1.80;99.90;;;;;;6243832;28;20591;-72
2022/02/19 07:07:24;;;;;;;1.60;1.60;;;1.80;99.90;;;;;;6262074;28;20295;-73
2022/02/19 07:10:29;;;;;;;1.60;1.60;;;1.80;99.90;;;;;;6244483;28;20551;-73
2022/02/19 07:13:39;;;;;;;1.63;1.63;;;1.90;99.90;;;;;;6243777;28;20300;-73
2022/02/19 07:16:45;;;;;;;2.33;2.20;;;1.80;99.90;;;;;;6244362;28;20298;-73
2022/02/19 07:19:50;;;;;;;2.40;2.30;;;1.80;99.90;;;;;;6243956;28;20307;-73
2022/02/19 07:22:58;;;;;;;2.37;2.27;;;1.80;99.90;;;;;;6261221;28;20300;-73
2022/02/19 07:26:05;;;;;;;2.70;2.60;;;1.90;99.90;;;;;;6244865;28;20280;-73
2022/02/19 07:29:13;;;;;;;2.23;2.20;;;1.90;99.90;;;;;;6243870;28;20299;-72
2022/02/19 07:32:22;;;;;;;2.00;2.00;;;1.90;99.90;;;;;;6243891;28;20292;-73
2022/02/19 07:35:29;;;;;;;2.17;2.17;;;1.90;99.90;;;;;;6244213;28;20294;-72
2022/02/19 07:38:36;;;;;;;2.20;2.00;;;1.90;99.90;;;;;;6261284;28;20308;-72
2022/02/19 07:41:41;;;;;;;1.53;1.43;;;1.90;99.90;;;;;;6244394;28;20286;-72
2022/02/19 07:44:57;;;;;;;2.07;1.97;;;1.80;99.90;;;;;;6260153;28;20295;-72
2022/02/19 07:48:20;;;;;;;2.03;1.93;;;1.90;99.90;;;;;;6261017;28;20295;-72
2022/02/19 07:58:39;;;;;;;5.00;2.37;;;1.90;99.90;;;;;;6243450;28;20296;-73
2022/02/19 08:01:44;;;;;;;2.93;2.40;;;1.80;99.90;;;;;;6243317;28;20277;-72
2022/02/19 08:04:50;;;;;;;4.57;2.40;;;1.90;99.90;;;;;;6243162;28;20304;-72
2022/02/19 08:07:57;;;;;;;2.20;2.10;;;1.90;99.90;;;;;;6242974;28;20296;-72
2022/02/19 08:11:04;;;;;;;2.60;2.40;;;2.00;99.90;;;;;;6243585;28;20275;-72
2022/02/19 08:14:10;;;;;;;3.53;2.20;;;2.10;99.90;;;;;;6261067;28;20299;-72
2022/02/19 08:17:17;;;;;;;2.30;2.10;;;2.10;99.90;;;;;;6260558;28;20296;-72
2022/02/19 08:20:23;;;;;;;2.40;2.20;;;2.10;99.90;;;;;;6261148;28;20273;-72
2022/02/19 08:23:28;;;;;;;2.03;1.93;;;2.10;99.90;;;;;;6262338;28;20301;-72
2022/02/19 08:26:35;;;;;;;1.90;1.80;;;2.20;99.90;;;;;;6265730;28;20272;-72
2022/02/19 08:29:40;;;;;;;1.73;1.70;;;2.20;99.90;;;;;;6265741;28;20431;-72
2022/02/19 08:32:45;;;;;;;1.60;1.60;;;2.10;99.90;;;;;;6264736;28;20291;-72
2022/02/19 08:35:50;;;;;;;1.73;1.73;;;2.10;99.90;;;;;;6265574;28;20293;-72
2022/02/19 08:38:56;;;;;;;3.70;1.90;;;2.00;99.90;;;;;;6265303;28;20300;-72
2022/02/19 08:42:03;;;;;;;1.90;1.90;;;2.00;99.90;;;;;;6264388;28;20465;-72
2022/02/19 08:45:10;;;;;;;1.70;1.70;;;2.00;99.90;;;;;;6265462;28;20274;-72
2022/02/19 08:48:18;;;;;;;2.50;2.00;;;2.10;99.90;;;;;;6265287;28;20347;-73
2022/02/19 08:51:23;;;;;;;2.50;1.97;;;2.10;99.90;;;;;;6265254;28;20276;-72
2022/02/19 08:54:29;;;;;;;2.10;2.10;;;2.20;99.90;;;;;;6264924;28;20324;-72
2022/02/19 08:57:36;;;;;;;2.07;2.00;;;2.20;99.90;;;;;;6264477;28;20303;-72
2022/02/19 09:00:41;;;;;;;2.80;2.10;;;2.10;99.90;;;;;;6264427;28;20448;-72
2022/02/19 09:03:47;;;;;;;1.60;1.60;;;2.10;99.90;;;;;;6264479;28;20291;-72
2022/02/19 09:06:52;;;;;;;1.77;1.67;;;2.10;99.90;;;;;;6264099;28;20374;-72
2022/02/19 09:09:58;;;;;;;1.80;1.53;;;2.20;99.90;;;;;;6268026;28;20288;-74
2022/02/19 09:13:04;;;;;;;1.53;1.53;;;2.20;99.90;;;;;;6288843;28;20298;-73
2022/02/19 09:16:12;;;;;;;1.60;1.60;;;2.20;99.90;;;;;;6288628;28;20288;-73
2022/02/19 09:19:17;;;;;;;1.73;1.67;;;2.20;99.90;;;;;;6288830;28;20300;-75
2022/02/19 09:22:23;;;;;;;2.93;1.67;;;2.20;99.90;;;;;;6287933;28;20290;-72
2022/02/19 09:25:28;;;;;;;1.40;1.40;;;2.20;99.90;;;;;;6288701;28;20288;-72
2022/02/19 09:28:35;;;;;;;1.47;1.47;;;2.30;99.90;;;;;;6288578;28;20303;-72
2022/02/19 09:31:42;;;;;;;1.70;1.60;;;2.30;99.90;;;;;;6288976;28;20408;-73
2022/02/19 09:34:48;;;;;;;1.60;1.50;;;2.30;99.90;;;;;;6287951;28;20297;-73
2022/02/19 09:37:54;;;;;;;2.13;2.00;;;2.30;99.90;;;;;;6270530;28;20320;-72
2022/02/19 09:41:01;;;;;;;1.97;1.60;;;2.30;99.90;;;;;;6289080;28;20275;-73
2022/02/19 09:44:08;;;;;;;1.50;1.50;;;2.40;99.90;;;;;;6288130;28;20297;-73
2022/02/19 09:47:16;;;;;;;1.80;1.70;;;2.50;99.90;;;;;;6288279;28;20312;-72
2022/02/19 09:50:26;;;;;;;1.53;1.47;;;2.50;99.90;;;;;;6288768;28;20451;-72
2022/02/19 09:53:32;;;;;;;1.20;1.20;;;2.50;99.90;;;;;;6287618;28;20299;-71
2022/02/19 09:56:37;;;;;;;1.50;1.40;;;2.50;99.90;;;;;;6288601;28;20290;-72
2022/02/19 09:59:44;;;;;;;1.30;1.30;;;2.50;99.90;;;;;;6288616;28;20294;-72
2022/02/19 10:02:49;;;;;;;1.60;1.40;;;2.50;99.90;;;;;;6288016;28;20302;-73
2022/02/19 10:05:56;;;;;;;1.60;1.60;;;2.70;99.90;;;;;;6287652;28;20268;-72
2022/02/19 10:09:13;;;;;;;1.73;1.63;;;2.70;99.90;;;;;;6287213;28;20302;-73
2022/02/19 10:12:18;;;;;;;3.60;3.03;;;2.70;99.90;;;;;;6287826;28;20291;-72
2022/02/19 10:15:40;;;;;;;1.20;1.20;;;2.60;99.90;;;;;;6287622;28;20272;-72
2022/02/19 10:18:46;;;;;;;1.90;1.40;;;2.50;99.90;;;;;;6287830;28;20301;-72
2022/02/19 10:22:09;;;;;;;1.13;1.13;;;2.50;99.90;;;;;;6288121;28;20465;-73
2022/02/19 10:25:21;;;;;;;1.30;1.30;;;2.50;99.90;;;;;;6286804;28;20597;-74
2022/02/19 10:28:27;;;;;;;1.53;1.47;;;2.60;99.90;;;;;;6287166;28;20304;-72
2022/02/19 10:31:35;;;;;;;1.47;1.33;;;2.60;99.90;;;;;;6287931;28;20272;-72
2022/02/19 10:35:02;;;;;;;2.10;1.27;;;2.50;99.90;;;;;;6287171;28;20300;-72
2022/02/19 10:38:13;;;;;;;1.30;1.30;;;2.60;99.90;;;;;;6287057;28;20359;-72
2022/02/19 10:41:18;;;;;;;1.10;1.10;;;2.50;99.90;;;;;;6287879;28;20459;-73
2022/02/19 10:44:26;;;;;;;2.40;1.10;;;2.60;99.90;;;;;;6286692;28;20295;-72
2022/02/19 10:47:35;;;;;;;1.33;1.30;;;2.70;99.90;;;;;;6287156;28;20480;-71
2022/02/19 10:50:41;;;;;;;2.40;1.27;;;2.70;99.90;;;;;;6288069;28;20277;-72
2022/02/19 10:53:59;;;;;;;1.47;1.37;;;2.70;99.90;;;;;;6286725;28;20294;-73
2022/02/19 10:57:11;;;;;;;1.27;1.27;;;2.50;99.90;;;;;;6269308;28;20276;-74
2022/02/19 11:00:19;;;;;;;1.47;1.40;;;2.40;99.90;;;;;;6286672;28;20444;-73
2022/02/19 11:03:27;;;;;;;1.23;1.23;;;2.30;99.90;;;;;;6285793;28;20292;-72
2022/02/19 11:06:32;;;;;;;2.20;1.30;;;2.40;99.90;;;;;;6286946;28;20271;-73
2022/02/19 11:09:37;;;;;;;1.27;1.27;;;2.40;99.90;;;;;;6284510;28;20593;-72
2022/02/19 11:12:43;;;;;;;1.37;1.37;;;2.30;99.90;;;;;;6260888;28;20311;-73
2022/02/19 11:15:49;;;;;;;1.20;1.20;;;2.40;99.90;;;;;;6261554;28;20562;-75
2022/02/19 11:18:56;;;;;;;1.90;1.27;;;2.50;99.90;;;;;;6262263;28;20303;-74
2022/02/19 11:22:12;;;;;;;1.30;1.30;;;2.50;99.90;;;;;;6267769;28;20339;-73
2022/02/19 11:25:20;;;;;;;1.10;1.10;;;2.50;99.90;;;;;;6286790;28;20272;-74
2022/02/19 11:28:27;;;;;;;1.30;1.20;;;2.60;99.90;;;;;;6285692;28;20299;-74
2022/02/19 11:31:34;;;;;;;1.40;1.20;;;2.60;99.90;;;;;;6286485;28;20273;-74
2022/02/19 11:34:40;;;;;;;1.07;1.07;;;2.60;99.90;;;;;;6285563;28;20299;-72
2022/02/19 11:37:46;;;;;;;1.43;1.20;;;2.40;99.90;;;;;;6286182;28;20311;-73
2022/02/19 11:40:54;;;;;;;1.03;1.03;;;2.30;99.90;;;;;;6286413;28;20276;-72
2022/02/19 11:43:59;;;;;;;1.20;1.20;;;2.30;99.90;;;;;;6285230;28;20303;-72
2022/02/19 11:47:26;;;;;;;1.73;1.30;;;2.30;99.90;;;;;;6285071;28;20266;-73
2022/02/19 11:50:37;;;;;;;1.23;1.23;;;2.20;99.90;;;;;;6286342;28;20443;-72
2022/02/19 11:53:43;;;;;;;1.37;1.27;;;2.30;99.90;;;;;;6286231;28;20299;-73
2022/02/19 11:56:49;;;;;;;1.40;1.40;;;2.30;99.90;;;;;;6286573;28;20270;-73
2022/02/19 11:59:54;;;;;;;1.30;1.30;;;2.30;99.90;;;;;;6290066;28;20487;-73
2022/02/19 12:03:27;;;;;;;1.10;1.10;;;2.30;99.90;;;;;;6290828;28;20293;-73
2022/02/19 12:06:34;;;;;;;1.30;1.00;;;2.30;99.90;;;;;;6290819;28;20271;-72
2022/02/19 12:10:02;;;;;;;1.70;1.10;;;2.30;99.90;;;;;;6290272;28;20308;-73
2022/02/19 12:13:09;;;;;;;1.00;1.00;;;2.20;99.90;;;;;;6290513;28;20295;-73
2022/02/19 12:16:45;;;;;;;1.10;1.10;;;2.10;99.90;;;;;;6291463;28;20272;-73
2022/02/19 12:20:02;;;;;;;1.30;1.30;;;2.10;99.90;;;;;;6289960;28;20301;-74
2022/02/19 12:23:12;;;;;;;1.33;1.33;;;2.10;99.90;;;;;;6289991;28;20484;-73
2022/02/19 12:26:17;;;;;;;1.60;1.50;;;2.20;99.90;;;;;;6290291;28;20272;-74
2022/02/19 12:29:24;;;;;;;1.47;1.47;;;1.90;99.90;;;;;;6290466;28;20301;-73
2022/02/19 12:32:33;;;;;;;1.43;1.40;;;2.00;99.90;;;;;;6290152;28;20288;-72
2022/02/19 12:35:42;;;;;;;1.43;1.43;;;1.90;99.90;;;;;;6290578;28;20267;-72
2022/02/19 12:38:51;;;;;;;1.50;1.50;;;1.90;99.90;;;;;;6290207;28;20589;-73
2022/02/19 12:41:58;;;;;;;1.63;1.47;;;2.00;99.90;;;;;;6289996;28;20269;-73
2022/02/19 12:45:08;;;;;;;1.60;1.60;;;2.00;99.90;;;;;;6289652;28;20272;-73
2022/02/19 12:48:16;;;;;;;1.50;1.50;;;2.00;99.90;;;;;;6290051;28;20296;-73
2022/02/19 12:51:25;;;;;;;1.70;1.70;;;2.10;99.90;;;;;;6289460;28;20271;-72
2022/02/19 12:54:38;;;;;;;1.80;1.80;;;2.00;99.90;;;;;;6290015;28;20298;-72
2022/02/19 12:57:45;;;;;;;1.40;1.40;;;1.90;99.90;;;;;;6290519;28;20307;-73
2022/02/19 13:00:51;;;;;;;1.50;1.50;;;1.80;99.90;;;;;;6290070;28;20292;-72
2022/02/19 13:03:57;;;;;;;1.80;1.80;;;1.80;99.90;;;;;;6289415;28;20291;-71
2022/02/19 13:07:04;;;;;;;1.97;1.87;;;1.70;99.90;;;;;;6288905;28;20271;-72
2022/02/19 13:10:12;;;;;;;1.50;1.50;;;1.80;99.90;;;;;;6264572;28;20264;-73
2022/02/19 13:13:21;;;;;;;1.93;1.83;;;1.90;99.90;;;;;;6282038;28;20300;-73
2022/02/19 13:16:27;;;;;;;1.80;1.80;;;1.80;99.90;;;;;;6288774;28;20551;-73
2022/02/19 13:19:35;;;;;;;1.70;1.70;;;1.80;99.90;;;;;;6288888;28;20307;-73
2022/02/19 13:22:42;;;;;;;1.70;1.70;;;1.80;99.90;;;;;;6288679;28;20299;-73
2022/02/19 13:25:49;;;;;;;1.77;1.77;;;1.80;99.90;;;;;;6289123;28;20275;-73
2022/02/19 13:28:55;;;;;;;1.70;1.70;;;2.00;99.90;;;;;;6271087;28;20301;-74
2022/02/19 13:32:01;;;;;;;1.80;1.80;;;1.90;99.90;;;;;;6288815;28;20534;-73
2022/02/19 13:35:10;;;;;;;2.40;1.60;;;1.90;99.90;;;;;;6289805;28;20274;-72
2022/02/19 13:38:17;;;;;;;1.60;1.60;;;1.70;99.90;;;;;;6288420;28;20300;-73
2022/02/19 13:41:24;;;;;;;1.50;1.50;;;1.80;99.90;;;;;;6289404;28;20291;-73
2022/02/19 13:44:30;;;;;;;1.70;1.70;;;1.70;99.90;;;;;;6288618;28;20299;-73
2022/02/19 13:47:35;;;;;;;1.53;1.53;;;1.70;99.90;;;;;;6287604;28;20478;-73
2022/02/19 13:50:43;;;;;;;1.60;1.60;;;1.70;99.90;;;;;;6289527;28;20549;-73
2022/02/19 13:53:49;;;;;;;1.37;1.37;;;1.60;99.90;;;;;;6288133;28;20295;-72
2022/02/19 13:57:21;;;;;;;1.70;1.70;;;1.60;99.90;;;;;;6288477;28;20323;-73
2022/02/19 14:00:34;;;;;;;1.70;1.70;;;1.60;99.90;;;;;;6288257;28;20478;-72
2022/02/19 14:03:44;;;;;;;2.00;1.90;;;1.50;99.90;;;;;;6287863;28;20405;-72
2022/02/19 14:06:51;;;;;;;2.10;1.50;;;1.40;99.90;;;;;;6287569;28;20270;-72
2022/02/19 14:10:08;;;;;;;1.50;1.50;;;1.40;99.90;;;;;;6286859;28;20287;-73
2022/02/19 14:13:16;;;;;;;1.57;1.47;;;1.40;99.90;;;;;;6287585;28;20296;-73
2022/02/19 14:16:22;;;;;;;1.70;1.70;;;1.40;99.90;;;;;;6288322;28;20274;-73
2022/02/19 14:19:27;;;;;;;1.70;1.60;;;1.40;99.90;;;;;;6287364;28;20320;-73
2022/02/19 14:22:39;;;;;;;1.60;1.50;;;1.40;99.90;;;;;;6277755;28;20555;-72
2022/02/19 14:25:46;;;;;;;1.60;1.50;;;1.30;99.90;;;;;;6263017;28;20273;-72
2022/02/19 14:28:57;;;;;;;1.20;1.20;;;1.30;99.90;;;;;;6262864;28;20301;-72
2022/02/19 14:32:03;;;;;;;1.30;1.30;;;1.20;99.90;;;;;;6263785;28;20272;-73
2022/02/19 14:35:09;;;;;;;1.40;1.40;;;1.20;99.90;;;;;;6263695;28;20546;-72
2022/02/19 14:38:21;;;;;;;1.47;1.47;;;1.20;99.90;;;;;;6262646;28;20298;-72
2022/02/19 14:41:26;;;;;;;1.40;1.40;;;1.20;99.90;;;;;;6263278;28;20299;-72
2022/02/19 14:44:32;;;;;;;1.33;1.30;;;1.10;99.90;;;;;;6262763;28;20303;-73
2022/02/19 14:47:39;;;;;;;1.50;1.40;;;1.10;99.90;;;;;;6262524;28;20296;-72
2022/02/19 14:50:47;;;;;;;1.40;1.40;;;1.10;99.90;;;;;;6262622;28;20279;-72
2022/02/19 14:53:52;;;;;;;1.50;1.50;;;1.00;99.90;;;;;;6262299;28;20295;-73
2022/02/19 14:56:58;;;;;;;1.60;1.60;;;1.00;99.90;;;;;;6262210;28;20542;-72
2022/02/19 15:00:08;;;;;;;1.60;1.60;;;1.00;99.90;;;;;;6262800;28;20535;-72
2022/02/19 15:03:20;;;;;;;1.60;1.50;;;1.00;99.90;;;;;;6262085;28;20610;-73
2022/02/19 15:06:26;;;;;;;1.40;1.40;;;0.90;99.90;;;;;;6262047;28;20274;-72
2022/02/19 15:09:32;;;;;;;1.50;1.50;;;0.90;99.90;;;;;;6262090;28;20295;-73
2022/02/19 15:12:38;;;;;;;1.43;1.43;;;0.80;99.90;;;;;;6260980;28;20304;-74
2022/02/19 15:15:44;;;;;;;1.47;1.37;;;0.80;99.90;;;;;;6262302;28;20280;-74
2022/02/19 15:18:52;;;;;;;1.30;1.30;;;0.80;99.90;;;;;;6261519;28;20298;-72
2022/02/19 15:21:57;;;;;;;1.70;1.70;;;0.80;99.90;;;;;;6265503;28;20325;-72
2022/02/19 15:25:04;;;;;;;1.90;1.30;;;0.70;99.90;;;;;;6287090;28;20549;-72
2022/02/19 15:28:12;;;;;;;1.40;1.40;;;0.70;99.90;;;;;;6285803;28;20588;-72
2022/02/19 15:31:20;;;;;;;1.50;1.50;;;0.70;99.90;;;;;;6285872;28;20276;-72
2022/02/19 15:34:29;;;;;;;1.50;1.50;;;0.70;99.90;;;;;;6284879;28;20297;-72
2022/02/19 15:37:35;;;;;;;1.40;1.40;;;0.60;99.90;;;;;;6286125;28;20301;-72
2022/02/19 15:40:41;;;;;;;1.40;1.40;;;0.60;99.90;;;;;;6286813;28;20298;-72
2022/02/19 15:43:46;;;;;;;1.40;1.40;;;0.60;99.90;;;;;;6285736;28;20463;-72
2022/02/19 15:46:53;;;;;;;1.40;1.40;;;0.60;99.90;;;;;;6285745;28;20278;-72
2022/02/19 15:49:59;;;;;;;1.23;1.23;;;0.60;99.90;;;;;;6285531;28;20565;-72
2022/02/19 15:53:05;;;;;;;1.60;1.50;;;0.60;99.90;;;;;;6285407;28;20295;-72
2022/02/19 15:56:14;;;;;;;1.50;1.50;;;0.50;99.90;;;;;;6286625;28;20275;-72
2022/02/19 15:59:19;;;;;;;1.40;1.40;;;0.50;99.90;;;;;;6286131;28;20297;-72
2022/02/19 16:02:26;;;;;;;1.30;1.30;;;0.40;99.90;;;;;;6285410;28;20299;-72
2022/02/19 16:05:32;;;;;;;1.60;1.60;;;0.40;99.90;;;;;;6286291;28;20277;-72
2022/02/19 16:08:37;;;;;;;1.50;1.40;;;0.40;99.90;;;;;;6285080;28;20302;-72
2022/02/19 16:11:44;;;;;;;1.27;1.27;;;0.40;99.90;;;;;;6285860;28;20270;-72
2022/02/19 16:14:49;;;;;;;1.73;1.67;;;0.40;99.90;;;;;;6285097;28;20296;-72
2022/02/19 16:17:56;;;;;;;1.50;1.40;;;0.40;99.90;;;;;;6285311;28;20308;-72
2022/02/19 16:21:01;;;;;;;1.40;1.40;;;0.40;99.90;;;;;;6285947;28;20272;-72
2022/02/19 16:24:08;;;;;;;1.60;1.60;;;0.30;99.90;;;;;;6285351;28;20305;-72
2022/02/19 16:27:14;;;;;;;1.30;1.30;;;0.30;99.90;;;;;;6283490;28;20273;-73
2022/02/19 16:30:19;;;;;;;1.40;1.40;;;0.30;99.90;;;;;;6285450;28;20270;-73
2022/02/19 16:33:27;;;;;;;1.30;1.30;;;0.20;99.90;;;;;;6285521;28;20296;-72
2022/02/19 16:36:32;;;;;;;1.43;1.43;;;0.20;99.90;;;;;;6285971;28;20278;-72
2022/02/19 16:39:38;;;;;;;1.30;1.30;;;0.30;99.90;;;;;;6285219;28;20291;-72
2022/02/19 16:42:43;;;;;;;1.40;1.40;;;0.20;99.90;;;;;;6284536;28;20300;-72